createdAt,value
2019-02-23T00:03:03.558Z,3.3
2019-02-23T00:08:04.406Z,3.3
2019-02-23T00:12:28.377Z,3.3
2019-02-23T00:17:27.643Z,3.3
2019-02-23T00:22:27.863Z,3.4
2019-02-23T00:27:27.998Z,3.4
2019-02-23T00:32:28.123Z,3.5
2019-02-23T00:37:27.765Z,3.5
2019-02-23T00:42:27.526Z,3.5
2019-02-23T00:47:27.543Z,3.4
2019-02-23T00:52:27.495Z,3.5
2019-02-23T00:57:28.894Z,3.5
2019-02-23T01:02:28.332Z,3.5
2019-02-23T01:07:27.934Z,3.5
2019-02-23T01:12:28.231Z,3.4
2019-02-23T01:17:28.717Z,3.3
2019-02-23T01:22:28.220Z,3.1
2019-02-23T01:27:27.374Z,2.9
2019-02-23T01:32:27.867Z,2.7
2019-02-23T01:37:27.746Z,2.6
2019-02-23T01:42:28.634Z,2.6
2019-02-23T01:47:27.884Z,2.5
2019-02-23T01:52:28.153Z,2.4
2019-02-23T01:57:27.949Z,2.4
2019-02-23T02:02:27.739Z,2.4
2019-02-23T02:07:27.140Z,2.4
2019-02-23T02:12:27.701Z,2.2
2019-02-23T02:17:28.036Z,2.1
2019-02-23T02:22:27.346Z,2.0
2019-02-23T02:27:28.962Z,1.9
2019-02-23T02:32:28.488Z,1.9
2019-02-23T02:37:27.986Z,1.9
2019-02-23T02:42:27.531Z,1.9
2019-02-23T02:47:28.278Z,1.9
2019-02-23T02:52:27.410Z,2.0
2019-02-23T02:57:28.748Z,2.0
2019-02-23T03:02:28.326Z,2.0
2019-02-23T03:07:27.844Z,2.1
2019-02-23T03:12:27.845Z,2.2
2019-02-23T03:17:29.058Z,2.3
2019-02-23T03:22:27.875Z,2.3
2019-02-23T03:27:27.574Z,2.2
2019-02-23T03:32:27.644Z,2.2
2019-02-23T03:37:28.735Z,2.2
2019-02-23T03:42:28.449Z,2.2
2019-02-23T03:47:27.898Z,2.1
2019-02-23T03:52:27.773Z,2.2
2019-02-23T03:57:28.158Z,2.1
2019-02-23T04:02:27.769Z,1.9
2019-02-23T04:07:27.913Z,1.8
2019-02-23T04:12:27.019Z,1.8
2019-02-23T04:17:27.971Z,1.9
2019-02-23T04:22:27.203Z,1.9
2019-02-23T04:27:27.501Z,1.8
2019-02-23T04:32:27.824Z,1.8
2019-02-23T04:37:27.738Z,1.7
2019-02-23T04:42:28.445Z,1.9
2019-02-23T04:47:28.408Z,1.8
2019-02-23T04:52:28.007Z,1.9
2019-02-23T04:57:27.809Z,2.0
2019-02-23T05:02:28.283Z,2.1
2019-02-23T05:07:27.429Z,2.2
2019-02-23T05:12:28.071Z,2.3
2019-02-23T05:17:27.833Z,2.4
2019-02-23T05:22:28.229Z,2.5
2019-02-23T05:27:27.734Z,2.7
2019-02-23T05:32:27.624Z,2.8
2019-02-23T05:37:27.509Z,3.0
2019-02-23T05:42:27.725Z,2.9
2019-02-23T05:47:28.281Z,3.1
2019-02-23T05:52:28.303Z,3.0
2019-02-23T05:57:28.215Z,3.2
2019-02-23T06:02:27.691Z,3.0
2019-02-23T06:07:28.546Z,3.0
2019-02-23T06:12:29.610Z,2.8
2019-02-23T06:17:28.231Z,2.7
2019-02-23T06:22:28.428Z,2.6
2019-02-23T06:27:28.574Z,2.6
2019-02-23T06:32:27.649Z,2.6
2019-02-23T06:37:28.513Z,2.6
2019-02-23T06:42:28.611Z,2.6
2019-02-23T06:47:29.227Z,2.6
2019-02-23T06:52:28.016Z,2.6
2019-02-23T06:57:28.398Z,2.5
2019-02-23T07:02:28.776Z,2.6
2019-02-23T07:07:28.554Z,2.7
2019-02-23T07:12:29.374Z,3.0
2019-02-23T07:17:29.015Z,3.1
2019-02-23T07:22:28.289Z,3.3
2019-02-23T07:27:27.819Z,3.6
2019-02-23T07:32:28.542Z,4.2
2019-02-23T07:37:28.321Z,4.1
2019-02-23T07:42:28.505Z,4.5
2019-02-23T07:47:27.953Z,4.6
2019-02-23T07:52:29.113Z,4.9
2019-02-23T07:57:28.482Z,5.3
2019-02-23T08:02:28.603Z,5.7
2019-02-23T08:07:29.341Z,6.0
2019-02-23T08:12:28.129Z,5.9
2019-02-23T08:17:29.725Z,6.0
2019-02-23T08:22:36.997Z,6.4
2019-02-23T08:27:28.736Z,6.4
2019-02-23T08:32:29.262Z,6.8
2019-02-23T08:37:28.459Z,7.1
2019-02-23T08:42:29.068Z,7.4
2019-02-23T08:47:28.759Z,7.7
2019-02-23T08:52:28.209Z,8.0
2019-02-23T08:57:27.908Z,8.2
2019-02-23T09:02:28.685Z,8.5
2019-02-23T09:07:29.033Z,8.7
2019-02-23T09:12:28.659Z,8.9
2019-02-23T09:17:29.208Z,9.2
2019-02-23T09:22:28.096Z,9.3
2019-02-23T09:27:28.328Z,9.5
2019-02-23T09:32:28.291Z,9.7
2019-02-23T09:37:28.382Z,10.1
2019-02-23T09:42:28.793Z,10.0
2019-02-23T09:47:28.050Z,10.5
2019-02-23T09:52:28.534Z,10.9
2019-02-23T09:57:28.451Z,11.1
2019-02-23T10:02:28.745Z,11.3
2019-02-23T10:07:28.436Z,11.4
2019-02-23T10:12:27.963Z,11.6
2019-02-23T10:17:29.019Z,11.9
2019-02-23T10:22:29.306Z,11.9
2019-02-23T10:27:29.005Z,12.4
2019-02-23T10:32:28.379Z,12.3
2019-02-23T10:37:29.309Z,12.8
2019-02-23T10:42:28.234Z,12.8
2019-02-23T10:47:29.735Z,13.3
2019-02-23T10:52:28.409Z,13.3
2019-02-23T10:57:28.117Z,13.5
2019-02-23T11:02:28.112Z,13.7
2019-02-23T11:07:28.668Z,13.9
2019-02-23T11:12:27.973Z,14.3
2019-02-23T11:17:29.184Z,14.3
2019-02-23T11:22:28.019Z,14.5
2019-02-23T11:27:28.231Z,14.6
2019-02-23T11:32:29.398Z,14.7
2019-02-23T11:37:28.633Z,15.0
2019-02-23T11:42:28.753Z,15.0
2019-02-23T11:47:29.852Z,15.1
2019-02-23T11:52:27.631Z,15.5
2019-02-23T11:57:28.487Z,15.5
2019-02-23T12:02:28.448Z,15.5
2019-02-23T12:07:27.981Z,15.7
2019-02-23T12:12:28.506Z,16.0
2019-02-23T12:17:29.032Z,16.0
2019-02-23T12:22:27.822Z,16.1
2019-02-23T12:27:28.018Z,16.5
2019-02-23T12:32:28.613Z,17.1
2019-02-23T12:37:28.493Z,17.4
2019-02-23T12:42:27.947Z,17.8
2019-02-23T12:47:27.890Z,17.8
2019-02-23T12:52:29.172Z,18.0
2019-02-23T12:57:28.447Z,18.3
2019-02-23T13:02:27.581Z,18.2
2019-02-23T13:07:28.752Z,18.5
2019-02-23T13:12:28.668Z,18.6
2019-02-23T13:17:28.151Z,18.7
2019-02-23T13:22:28.818Z,18.9
2019-02-23T13:27:27.917Z,19.0
2019-02-23T13:32:28.422Z,19.4
2019-02-23T13:37:29.269Z,19.4
2019-02-23T13:42:28.502Z,19.5
2019-02-23T13:47:27.756Z,20.1
2019-02-23T13:52:27.803Z,20.5
2019-02-23T13:57:28.451Z,20.5
2019-02-23T14:02:28.534Z,20.9
2019-02-23T14:07:29.888Z,22.0
2019-02-23T14:12:28.007Z,22.8
2019-02-23T14:17:28.274Z,22.7
2019-02-23T14:22:29.326Z,22.7
2019-02-23T14:27:27.675Z,22.6
2019-02-23T14:32:27.939Z,22.9
2019-02-23T14:37:28.318Z,23.1
2019-02-23T14:42:28.628Z,24.0
2019-02-23T14:47:28.442Z,24.9
2019-02-23T14:52:28.618Z,25.7
2019-02-23T14:57:28.729Z,25.7
2019-02-23T15:02:27.707Z,25.4
2019-02-23T15:07:29.397Z,26.4
2019-02-23T15:12:28.429Z,25.6
2019-02-23T15:17:28.049Z,21.4
2019-02-23T15:22:28.499Z,20.3
2019-02-23T15:27:29.146Z,20.2
2019-02-23T15:32:28.352Z,19.3
2019-02-23T15:37:28.018Z,18.4
2019-02-23T15:42:28.227Z,17.9
2019-02-23T15:47:28.638Z,17.3
2019-02-23T15:52:28.986Z,16.6
2019-02-23T15:57:28.191Z,15.5
2019-02-23T16:02:28.393Z,15.4
2019-02-23T16:07:28.643Z,14.2
2019-02-23T16:12:27.923Z,14.2
2019-02-23T16:17:28.474Z,13.2
2019-02-23T16:22:27.889Z,13.1
2019-02-23T16:27:28.116Z,12.8
2019-02-23T16:32:28.357Z,12.4
2019-02-23T16:37:28.237Z,12.0
2019-02-23T16:42:28.936Z,11.6
2019-02-23T16:47:28.074Z,11.1
2019-02-23T16:52:27.840Z,11.0
2019-02-23T16:57:27.927Z,10.8
2019-02-23T17:02:29.370Z,10.5
2019-02-23T17:07:28.899Z,10.1
2019-02-23T17:12:27.788Z,10.0
2019-02-23T17:17:28.493Z,9.8
2019-02-23T17:22:28.467Z,9.7
2019-02-23T17:27:36.023Z,9.6
2019-02-23T17:32:28.355Z,9.3
2019-02-23T17:37:28.459Z,9.1
2019-02-23T17:42:28.394Z,8.8
2019-02-23T17:47:28.342Z,8.8
2019-02-23T17:52:27.854Z,8.7
2019-02-23T17:57:27.799Z,8.5
2019-02-23T18:02:27.877Z,8.3
2019-02-23T18:07:30.162Z,8.1
2019-02-23T18:12:27.650Z,7.9
2019-02-23T18:17:27.974Z,7.8
2019-02-23T18:22:28.222Z,7.8
2019-02-23T18:27:29.588Z,7.6
2019-02-23T18:32:27.217Z,7.5
2019-02-23T18:37:28.618Z,7.2
2019-02-23T18:42:28.153Z,7.2
2019-02-23T18:47:28.530Z,7.1
2019-02-23T18:52:28.718Z,7.0
2019-02-23T18:57:27.819Z,6.9
2019-02-23T19:02:27.632Z,6.9
2019-02-23T19:07:27.995Z,6.7
2019-02-23T19:12:27.551Z,6.6
2019-02-23T19:17:27.859Z,6.6
2019-02-23T19:22:28.311Z,6.6
2019-02-23T19:27:27.012Z,6.5
2019-02-23T19:32:27.806Z,6.5
2019-02-23T19:37:28.212Z,6.4
2019-02-23T19:42:28.272Z,6.4
2019-02-23T19:47:27.806Z,6.3
2019-02-23T19:52:27.779Z,6.2
2019-02-23T19:57:28.446Z,6.2
2019-02-23T20:02:28.646Z,5.9
2019-02-23T20:07:27.489Z,5.9
2019-02-23T20:12:28.228Z,5.8
2019-02-23T20:17:28.942Z,5.7
2019-02-23T20:22:27.729Z,5.7
2019-02-23T20:27:27.574Z,5.7
2019-02-23T20:32:27.825Z,5.6
2019-02-23T20:37:27.483Z,5.6
2019-02-23T20:42:29.211Z,5.5
2019-02-23T20:47:27.822Z,5.3
2019-02-23T20:52:27.867Z,5.3
2019-02-23T20:57:27.725Z,5.3
2019-02-23T21:02:28.050Z,5.2
2019-02-23T21:07:28.552Z,5.0
2019-02-23T21:12:28.975Z,5.0
2019-02-23T21:17:28.226Z,4.9
2019-02-23T21:22:27.700Z,4.8
2019-02-23T21:27:28.484Z,4.7
2019-02-23T21:32:28.581Z,4.6
2019-02-23T21:37:27.769Z,4.5
2019-02-23T21:42:27.821Z,4.4
2019-02-23T21:47:28.695Z,4.2
2019-02-23T21:52:28.419Z,4.2
2019-02-23T21:57:27.965Z,4.1
2019-02-23T22:02:29.054Z,4.1
2019-02-23T22:07:27.254Z,3.9
2019-02-23T22:12:28.260Z,3.8
2019-02-23T22:17:27.741Z,3.8
2019-02-23T22:22:28.384Z,3.6
2019-02-23T22:27:31.253Z,3.5
2019-02-23T22:32:28.387Z,3.5
2019-02-23T22:37:27.878Z,3.4
2019-02-23T22:42:27.953Z,3.0
2019-02-23T22:47:27.974Z,2.9
2019-02-23T22:52:27.553Z,2.9
2019-02-23T22:57:28.014Z,2.6
2019-02-23T23:02:28.366Z,2.6
2019-02-23T23:07:28.531Z,2.4
2019-02-23T23:12:27.863Z,2.4
2019-02-23T23:22:41.964Z,2.1
2019-02-23T23:27:40.095Z,2.1
2019-02-23T23:32:39.989Z,2.1
2019-02-23T23:37:40.360Z,2.1
2019-02-23T23:42:40.698Z,2.0
2019-02-23T23:47:41.915Z,1.9
2019-02-23T23:52:40.001Z,1.9
2019-02-23T23:57:40.652Z,1.9
